createdAt,value
2017-07-03T00:02:02.707Z,16.4
2017-07-03T00:07:03.029Z,16.3
2017-07-03T00:12:02.781Z,16.4
2017-07-03T00:17:10.513Z,16.4
2017-07-03T00:22:03.386Z,16.3
2017-07-03T00:27:03.030Z,16.3
2017-07-03T00:32:03.149Z,16.3
2017-07-03T00:37:03.427Z,16.2
2017-07-03T00:42:02.968Z,16.2
2017-07-03T00:47:03.153Z,16.3
2017-07-03T00:52:03.324Z,16.3
2017-07-03T00:57:02.994Z,16.3
2017-07-03T01:02:03.603Z,16.3
2017-07-03T01:07:03.325Z,16.3
2017-07-03T01:12:03.151Z,16.3
2017-07-03T01:17:03.030Z,16.5
2017-07-03T01:22:03.544Z,16.5
2017-07-03T01:27:03.301Z,16.5
2017-07-03T01:32:03.043Z,16.7
2017-07-03T01:37:02.967Z,16.7
2017-07-03T01:42:02.794Z,16.7
2017-07-03T01:47:03.601Z,16.8
2017-07-03T01:52:03.094Z,16.9
2017-07-03T01:57:02.739Z,16.9
2017-07-03T02:02:03.344Z,16.9
2017-07-03T02:07:02.876Z,16.9
2017-07-03T02:12:03.561Z,16.9
2017-07-03T02:17:03.431Z,16.9
2017-07-03T02:22:03.017Z,16.9
2017-07-03T02:27:03.587Z,16.5
2017-07-03T02:32:03.672Z,16.4
2017-07-03T02:37:03.131Z,16.2
2017-07-03T02:42:03.386Z,16.2
2017-07-03T02:47:10.569Z,16.2
2017-07-03T02:52:03.089Z,16.3
2017-07-03T02:57:03.549Z,16.3
2017-07-03T03:07:02.825Z,16.0
2017-07-03T03:12:03.266Z,16.0
2017-07-03T03:17:14.102Z,15.9
2017-07-03T03:22:03.002Z,15.9
2017-07-03T03:27:02.797Z,15.9
2017-07-03T03:32:17.430Z,15.8
2017-07-03T03:37:03.483Z,15.8
2017-07-03T03:42:02.947Z,15.7
2017-07-03T03:47:18.029Z,15.8
2017-07-03T03:52:02.803Z,15.8
2017-07-03T03:57:03.154Z,15.9
2017-07-03T04:02:14.007Z,16.0
2017-07-03T04:07:03.179Z,16.2
2017-07-03T04:12:03.578Z,16.1
2017-07-03T04:17:13.759Z,16.3
2017-07-03T04:22:03.510Z,16.3
2017-07-03T04:27:02.856Z,16.4
2017-07-03T04:32:17.821Z,16.4
2017-07-03T04:37:03.651Z,16.4
2017-07-03T04:42:03.198Z,16.6
2017-07-03T04:47:14.088Z,16.6
2017-07-03T04:52:03.340Z,16.9
2017-07-03T04:57:02.731Z,17.1
2017-07-03T05:02:13.428Z,17.2
2017-07-03T05:07:03.347Z,17.2
2017-07-03T05:12:02.991Z,17.2
2017-07-03T05:17:13.874Z,17.4
2017-07-03T05:22:03.397Z,17.3
2017-07-03T05:27:02.794Z,17.6
2017-07-03T05:32:17.853Z,18.5
2017-07-03T05:37:02.929Z,18.5
2017-07-03T05:42:03.232Z,19.0
2017-07-03T05:47:13.515Z,19.3
2017-07-03T05:52:03.340Z,19.2
2017-07-03T05:57:02.695Z,19.5
2017-07-03T06:02:13.337Z,20.3
2017-07-03T06:07:03.343Z,20.6
2017-07-03T06:12:02.954Z,20.7
2017-07-03T06:17:13.622Z,20.7
2017-07-03T06:22:03.058Z,20.8
2017-07-03T06:27:03.699Z,20.7
2017-07-03T06:32:13.343Z,20.7
2017-07-03T06:37:03.165Z,20.4
2017-07-03T06:42:03.443Z,20.2
2017-07-03T06:47:13.271Z,20.3
2017-07-03T06:52:03.496Z,21.1
2017-07-03T06:57:02.947Z,21.8
2017-07-03T07:02:13.570Z,22.2
2017-07-03T07:07:02.758Z,22.8
2017-07-03T07:12:03.312Z,22.7
2017-07-03T07:17:18.257Z,23.2
2017-07-03T07:22:03.167Z,23.2
2017-07-03T07:27:03.441Z,23.1
2017-07-03T07:32:13.140Z,23.3
2017-07-03T07:37:02.847Z,23.3
2017-07-03T07:42:03.214Z,23.3
2017-07-03T07:47:18.116Z,23.6
2017-07-03T07:52:02.745Z,24.0
2017-07-03T07:57:03.104Z,47.0
2017-07-03T08:02:17.249Z,23.9
2017-07-03T08:07:03.510Z,24.1
2017-07-03T08:12:03.077Z,24.1
2017-07-03T08:17:17.277Z,24.1
2017-07-03T08:22:02.863Z,24.9
2017-07-03T08:27:03.265Z,24.9
2017-07-03T08:32:10.237Z,25.3
2017-07-03T08:37:03.451Z,25.7
2017-07-03T08:42:02.784Z,25.7
2017-07-03T08:47:13.682Z,26.0
2017-07-03T08:52:03.189Z,25.9
2017-07-03T08:57:03.478Z,25.6
2017-07-03T09:02:13.226Z,25.6
2017-07-03T09:07:03.285Z,25.2
2017-07-03T09:12:02.884Z,24.7
2017-07-03T09:17:23.399Z,24.5
2017-07-03T09:22:02.941Z,24.7
2017-07-03T09:27:03.382Z,24.8
2017-07-03T09:32:08.749Z,24.8
2017-07-03T09:37:02.816Z,24.3
2017-07-03T09:42:03.312Z,24.3
2017-07-03T09:47:13.031Z,24.2
2017-07-03T09:52:03.061Z,24.6
2017-07-03T09:57:03.424Z,25.0
2017-07-03T10:02:12.722Z,25.0
2017-07-03T10:07:03.380Z,24.9
2017-07-03T10:12:03.294Z,24.9
2017-07-03T10:17:17.613Z,24.7
2017-07-03T10:22:03.436Z,24.6
2017-07-03T10:27:02.884Z,24.9
2017-07-03T10:32:13.208Z,25.0
2017-07-03T10:37:02.846Z,25.0
2017-07-03T10:42:03.281Z,25.9
2017-07-03T10:47:16.796Z,26.1
2017-07-03T10:52:02.758Z,26.1
2017-07-03T10:57:03.331Z,26.7
2017-07-03T11:07:03.555Z,27.1
2017-07-03T11:12:03.138Z,27.1
2017-07-03T11:17:17.096Z,27.0
2017-07-03T11:22:03.624Z,27.0
2017-07-03T11:27:03.400Z,27.6
2017-07-03T11:32:13.229Z,27.5
2017-07-03T11:37:02.926Z,27.2
2017-07-03T11:42:03.347Z,27.1
2017-07-03T11:47:16.887Z,27.4
2017-07-03T11:52:03.439Z,28.0
2017-07-03T11:57:02.688Z,28.2
2017-07-03T12:02:11.449Z,28.2
2017-07-03T12:07:03.000Z,28.0
2017-07-03T12:12:03.624Z,28.7
2017-07-03T12:17:13.840Z,28.3
2017-07-03T12:22:03.192Z,28.3
2017-07-03T12:27:03.532Z,27.9
2017-07-03T12:32:13.311Z,27.9
2017-07-03T12:37:03.400Z,28.4
2017-07-03T12:42:02.827Z,28.4
2017-07-03T12:47:17.071Z,28.5
2017-07-03T12:52:02.790Z,28.5
2017-07-03T12:57:03.011Z,29.2
2017-07-03T13:02:13.767Z,29.6
2017-07-03T13:07:03.014Z,30.3
2017-07-03T13:12:03.466Z,30.3
2017-07-03T13:17:13.377Z,30.4
2017-07-03T13:22:03.038Z,29.7
2017-07-03T13:27:03.386Z,29.7
2017-07-03T13:32:13.999Z,29.6
2017-07-03T13:37:03.442Z,29.6
2017-07-03T13:42:02.841Z,29.0
2017-07-03T13:47:23.300Z,27.9
2017-07-03T13:52:02.693Z,27.8
2017-07-03T13:57:03.110Z,27.5
2017-07-03T14:02:13.682Z,27.6
2017-07-03T14:07:02.993Z,27.9
2017-07-03T14:12:03.456Z,28.4
2017-07-03T14:17:17.694Z,28.3
2017-07-03T14:22:03.604Z,28.5
2017-07-03T14:27:03.510Z,28.8
2017-07-03T14:32:13.562Z,29.4
2017-07-03T14:37:03.012Z,29.8
2017-07-03T14:42:03.316Z,29.3
2017-07-03T14:47:17.450Z,28.7
2017-07-03T14:52:02.785Z,30.2
2017-07-03T14:57:03.226Z,29.7
2017-07-03T15:02:12.959Z,30.5
2017-07-03T15:07:03.158Z,30.5
2017-07-03T15:12:03.629Z,29.9
2017-07-03T15:17:17.202Z,30.6
2017-07-03T15:22:03.219Z,30.6
2017-07-03T15:27:03.512Z,33.4
2017-07-03T15:32:13.400Z,38.6
2017-07-03T15:37:03.408Z,42.3
2017-07-03T15:42:03.317Z,42.2
2017-07-03T15:47:13.173Z,43.0
2017-07-03T15:52:02.661Z,43.9
2017-07-03T15:57:03.420Z,43.8
2017-07-03T16:02:13.195Z,44.0
2017-07-03T16:07:03.439Z,45.1
2017-07-03T16:12:02.958Z,45.1
2017-07-03T16:17:14.486Z,44.5
2017-07-03T16:22:03.479Z,45.8
2017-07-03T16:27:02.781Z,46.2
2017-07-03T16:32:19.872Z,46.8
2017-07-03T16:37:02.802Z,47.1
2017-07-03T16:42:03.137Z,42.2
2017-07-03T16:47:13.933Z,37.3
2017-07-03T16:52:03.390Z,30.3
2017-07-03T16:57:02.749Z,29.3
2017-07-03T17:02:19.780Z,30.6
2017-07-03T17:07:03.360Z,39.2
2017-07-03T17:12:02.984Z,39.2
2017-07-03T17:17:17.582Z,42.5
2017-07-03T17:22:03.243Z,43.7
2017-07-03T17:27:03.485Z,44.1
2017-07-03T17:32:15.842Z,44.4
2017-07-03T17:37:03.392Z,44.6
2017-07-03T17:42:02.795Z,44.4
2017-07-03T17:47:15.220Z,43.4
2017-07-03T17:52:02.967Z,42.9
2017-07-03T17:57:03.295Z,42.8
2017-07-03T18:02:14.521Z,38.1
2017-07-03T18:07:03.578Z,35.5
2017-07-03T18:12:03.045Z,35.5
2017-07-03T18:17:18.045Z,31.3
2017-07-03T18:22:03.445Z,29.1
2017-07-03T18:27:02.798Z,29.0
2017-07-03T18:32:13.604Z,26.7
2017-07-03T18:37:03.590Z,26.7
2017-07-03T18:42:02.960Z,25.1
2017-07-03T18:47:13.933Z,25.0
2017-07-03T18:52:03.283Z,24.6
2017-07-03T18:57:03.551Z,24.1
2017-07-03T19:02:13.301Z,23.6
2017-07-03T19:07:02.940Z,23.3
2017-07-03T19:12:03.399Z,23.3
2017-07-03T19:17:13.627Z,22.8
2017-07-03T19:22:03.430Z,22.8
2017-07-03T19:27:02.886Z,22.7
2017-07-03T19:32:13.741Z,22.5
2017-07-03T19:37:03.564Z,22.3
2017-07-03T19:42:03.206Z,21.7
2017-07-03T19:47:13.477Z,21.7
2017-07-03T19:52:02.774Z,21.6
2017-07-03T19:57:03.009Z,21.3
2017-07-03T20:02:13.574Z,21.2
2017-07-03T20:07:02.990Z,21.0
2017-07-03T20:12:03.257Z,21.0
2017-07-03T20:17:09.159Z,20.9
2017-07-03T20:22:03.327Z,20.8
2017-07-03T20:27:03.666Z,20.5
2017-07-03T20:32:06.504Z,20.3
2017-07-03T20:37:03.379Z,20.3
2017-07-03T20:42:02.977Z,20.1
2017-07-03T20:47:03.846Z,19.9
2017-07-03T20:52:03.039Z,19.9
2017-07-03T20:57:03.285Z,19.7
2017-07-03T21:02:03.752Z,19.5
2017-07-03T21:07:02.915Z,19.4
2017-07-03T21:12:03.339Z,19.0
2017-07-03T21:17:03.704Z,18.9
2017-07-03T21:22:03.112Z,18.8
2017-07-03T21:27:03.353Z,18.6
2017-07-03T21:32:03.674Z,18.6
2017-07-03T21:37:03.065Z,18.5
2017-07-03T21:42:03.172Z,18.5
2017-07-03T21:47:03.503Z,18.4
2017-07-03T21:52:02.864Z,18.3
2017-07-03T21:57:03.050Z,18.0
2017-07-03T22:02:03.445Z,18.0
2017-07-03T22:07:03.212Z,17.7
2017-07-03T22:12:03.351Z,17.6
2017-07-03T22:22:03.401Z,17.1
2017-07-03T22:27:03.537Z,17.2
2017-07-03T22:32:03.036Z,17.1
2017-07-03T22:37:03.626Z,17.0
2017-07-03T22:42:03.179Z,17.0
2017-07-03T22:47:02.888Z,17.0
2017-07-03T22:52:03.242Z,17.0
2017-07-03T22:57:02.709Z,17.0
2017-07-03T23:02:03.224Z,17.0
2017-07-03T23:07:02.817Z,16.9
2017-07-03T23:12:03.472Z,16.7
2017-07-03T23:17:03.302Z,16.7
2017-07-03T23:22:03.642Z,16.6
2017-07-03T23:27:03.345Z,16.5
2017-07-03T23:32:03.015Z,16.5
2017-07-03T23:37:02.890Z,16.5
2017-07-03T23:42:03.601Z,16.4
2017-07-03T23:47:03.453Z,16.5
2017-07-03T23:52:03.058Z,16.4
2017-07-03T23:57:02.752Z,16.4
